Time;durP1;ratioP1;P1;durP2;ratioP2;P2;SDS_P1;SDS_P2;PMS_P1;PMS_P2;Temp;Humidity;BMP_temperature;BMP_pressure;BME280_temperature;BME280_humidity;BME280_pressure;Samples;Min_cycle;Max_cycle;Signal;HPM_P1;HPM_P2
2023/02/26 00:02:17;;;;;;;3.60;1.90;;;;;;;;;;5055549;28;20264;-67
2023/02/26 00:04:45;;;;;;;9.55;2.58;;;;;;;;;;5055394;28;20650;-67
2023/02/26 00:07:12;;;;;;;7.57;2.13;;;;;;;;;;5072180;28;20190;-68
2023/02/26 00:09:39;;;;;;;7.78;2.63;;;;;;;;;;5075708;28;20222;-67
2023/02/26 00:12:08;;;;;;;6.38;2.20;;;;;;;;;;5075577;28;20195;-67
2023/02/26 00:14:36;;;;;;;4.32;2.40;;;;;;;;;;5075384;28;20190;-67
2023/02/26 00:17:24;;;;;;;7.43;2.10;;;;;;;;;;5075316;28;20203;-67
2023/02/26 00:19:51;;;;;;;2.25;1.95;;;;;;;;;;5075747;28;20210;-67
2023/02/26 00:22:18;;;;;;;5.90;2.17;;;;;;;;;;5075294;28;20191;-67
2023/02/26 00:24:45;;;;;;;5.90;2.03;;;;;;;;;;5074804;28;20638;-67
2023/02/26 00:27:14;;;;;;;2.60;2.10;;;;;;;;;;5074878;28;20190;-67
2023/02/26 00:29:42;;;;;;;4.30;2.25;;;;;;;;;;5074830;28;20191;-67
2023/02/26 00:32:09;;;;;;;6.22;2.35;;;;;;;;;;5075023;28;20550;-67
2023/02/26 00:34:36;;;;;;;3.08;1.75;;;;;;;;;;5075012;28;20192;-67
2023/02/26 00:37:10;;;;;;;3.05;1.90;;;;;;;;;;5074881;28;20202;-67
2023/02/26 00:39:40;;;;;;;5.32;2.00;;;;;;;;;;5074584;28;20629;-68
2023/02/26 00:42:07;;;;;;;2.75;2.50;;;;;;;;;;5074563;28;20614;-68
2023/02/26 00:44:36;;;;;;;4.35;2.00;;;;;;;;;;5074546;28;20191;-67
2023/02/26 00:47:08;;;;;;;7.78;2.45;;;;;;;;;;5074412;28;20196;-67
2023/02/26 00:49:44;;;;;;;3.67;2.20;;;;;;;;;;5075292;28;20190;-67
2023/02/26 00:52:14;;;;;;;3.10;2.05;;;;;;;;;;5074361;28;20188;-67
2023/02/26 00:54:41;;;;;;;2.55;1.80;;;;;;;;;;5074611;28;20197;-67
2023/02/26 00:57:08;;;;;;;2.50;2.25;;;;;;;;;;5074503;28;20207;-67
2023/02/26 00:59:36;;;;;;;4.68;2.00;;;;;;;;;;5073566;28;20191;-67
2023/02/26 01:02:04;;;;;;;3.38;1.90;;;;;;;;;;5074329;28;20211;-67
2023/02/26 01:04:31;;;;;;;8.05;2.10;;;;;;;;;;5074445;28;20195;-67
2023/02/26 01:06:59;;;;;;;3.05;1.60;;;;;;;;;;5074224;28;20183;-67
2023/02/26 01:09:27;;;;;;;3.25;2.05;;;;;;;;;;5074055;28;20195;-67
2023/02/26 01:11:55;;;;;;;7.50;1.90;;;;;;;;;;5074425;28;20201;-67
2023/02/26 01:14:22;;;;;;;4.32;1.95;;;;;;;;;;5074537;28;20278;-67
2023/02/26 01:16:54;;;;;;;1.83;1.70;;;;;;;;;;5074044;28;20266;-67
2023/02/26 01:19:27;;;;;;;3.72;1.83;;;;;;;;;;5073916;28;20185;-67
2023/02/26 01:21:57;;;;;;;4.90;2.42;;;;;;;;;;5074281;28;20541;-67
2023/02/26 01:24:25;;;;;;;3.42;2.45;;;;;;;;;;5073776;28;20197;-67
2023/02/26 01:26:53;;;;;;;1.88;1.67;;;;;;;;;;5073685;28;20547;-67
2023/02/26 01:29:20;;;;;;;3.50;2.17;;;;;;;;;;5073983;28;20187;-68
2023/02/26 01:31:50;;;;;;;2.75;2.10;;;;;;;;;;5073847;28;20209;-68
2023/02/26 01:34:22;;;;;;;3.47;2.00;;;;;;;;;;5074559;28;20200;-67
2023/02/26 01:36:52;;;;;;;2.88;2.10;;;;;;;;;;5073926;28;20179;-67
2023/02/26 01:39:25;;;;;;;3.83;1.90;;;;;;;;;;5073828;28;20206;-67
2023/02/26 01:41:55;;;;;;;5.78;1.95;;;;;;;;;;5073721;28;20204;-67
2023/02/26 01:44:25;;;;;;;4.07;2.13;;;;;;;;;;5073514;28;20745;-67
2023/02/26 01:47:05;;;;;;;3.40;1.95;;;;;;;;;;5073392;28;20202;-68
2023/02/26 01:49:33;;;;;;;2.35;2.15;;;;;;;;;;5073515;28;20182;-68
2023/02/26 01:52:01;;;;;;;2.38;2.17;;;;;;;;;;5073596;28;20205;-68
2023/02/26 01:54:30;;;;;;;4.50;2.30;;;;;;;;;;5073405;28;20201;-68
2023/02/26 01:56:59;;;;;;;2.50;1.95;;;;;;;;;;5073235;28;20653;-67
2023/02/26 01:59:27;;;;;;;3.25;2.08;;;;;;;;;;5073613;28;20191;-67
2023/02/26 02:01:54;;;;;;;2.53;2.03;;;;;;;;;;5073558;28;20213;-67
2023/02/26 02:04:23;;;;;;;6.70;2.40;;;;;;;;;;5073089;28;20198;-68
2023/02/26 02:06:52;;;;;;;4.15;2.38;;;;;;;;;;5073754;28;20179;-67
2023/02/26 02:09:19;;;;;;;4.38;2.10;;;;;;;;;;5074137;28;20527;-68
2023/02/26 02:11:54;;;;;;;7.68;2.20;;;;;;;;;;5073137;28;20194;-68
2023/02/26 02:14:24;;;;;;;2.95;1.92;;;;;;;;;;5073557;28;20189;-67
2023/02/26 02:16:56;;;;;;;5.53;2.22;;;;;;;;;;5073017;28;20199;-68
2023/02/26 02:19:41;;;;;;;4.25;1.80;;;;;;;;;;5073385;28;20178;-67
2023/02/26 02:22:35;;;;;;;3.80;2.17;;;;;;;;;;5072754;28;20219;-67
2023/02/26 02:25:11;;;;;;;4.95;2.05;;;;;;;;;;5073681;28;20184;-68
2023/02/26 02:27:46;;;;;;;3.85;2.58;;;;;;;;;;5073279;28;20583;-68
2023/02/26 02:30:26;;;;;;;4.15;2.10;;;;;;;;;;5073244;28;20183;-67
2023/02/26 02:32:56;;;;;;;3.53;1.92;;;;;;;;;;5073228;28;20534;-68
2023/02/26 02:35:26;;;;;;;2.45;2.30;;;;;;;;;;5073761;28;20183;-68
2023/02/26 02:37:57;;;;;;;3.95;2.05;;;;;;;;;;5073094;28;20548;-68
2023/02/26 02:40:25;;;;;;;3.80;2.67;;;;;;;;;;5072994;28;20620;-68
2023/02/26 02:42:53;;;;;;;4.40;2.05;;;;;;;;;;5073082;28;20186;-68
2023/02/26 02:45:23;;;;;;;4.50;1.95;;;;;;;;;;5073130;28;20213;-67
2023/02/26 02:47:53;;;;;;;3.35;1.90;;;;;;;;;;5072657;28;20190;-68
2023/02/26 02:50:25;;;;;;;3.88;1.88;;;;;;;;;;5073965;28;20269;-68
2023/02/26 02:52:55;;;;;;;3.75;2.00;;;;;;;;;;5073241;28;20188;-68
2023/02/26 02:55:25;;;;;;;3.92;1.95;;;;;;;;;;5073077;28;20187;-67
2023/02/26 02:57:54;;;;;;;5.00;2.10;;;;;;;;;;5073288;28;20249;-67
2023/02/26 03:00:22;;;;;;;4.13;2.03;;;;;;;;;;5072958;28;20190;-67
2023/02/26 03:02:52;;;;;;;4.20;2.10;;;;;;;;;;5072503;28;20406;-68
2023/02/26 03:05:19;;;;;;;1.95;1.67;;;;;;;;;;5072930;28;20236;-67
2023/02/26 03:07:50;;;;;;;3.88;2.38;;;;;;;;;;5072895;28;20187;-68
2023/02/26 03:10:18;;;;;;;2.20;1.80;;;;;;;;;;5072975;28;20178;-68
2023/02/26 03:12:45;;;;;;;3.13;1.95;;;;;;;;;;5072569;28;20191;-68
2023/02/26 03:15:13;;;;;;;2.17;1.98;;;;;;;;;;5072623;28;20196;-68
2023/02/26 03:17:43;;;;;;;5.07;2.50;;;;;;;;;;5072796;28;20580;-68
2023/02/26 03:20:17;;;;;;;3.85;2.03;;;;;;;;;;5072914;28;20183;-68
2023/02/26 03:22:48;;;;;;;1.52;1.42;;;;;;;;;;5074149;28;20202;-68
2023/02/26 03:25:18;;;;;;;2.20;2.00;;;;;;;;;;5076862;28;20187;-68
2023/02/26 03:27:48;;;;;;;2.80;1.85;;;;;;;;;;5075985;28;20202;-68
2023/02/26 03:30:17;;;;;;;3.30;2.00;;;;;;;;;;5076319;28;20198;-68
2023/02/26 03:32:46;;;;;;;3.10;1.83;;;;;;;;;;5076128;28;20199;-68
2023/02/26 03:35:15;;;;;;;1.85;1.60;;;;;;;;;;5075892;28;20201;-68
2023/02/26 03:37:45;;;;;;;8.45;2.00;;;;;;;;;;5076072;28;20232;-68
2023/02/26 03:40:16;;;;;;;5.70;1.98;;;;;;;;;;5076350;28;20186;-68
2023/02/26 03:42:46;;;;;;;3.40;1.48;;;;;;;;;;5075918;28;20221;-68
2023/02/26 03:45:15;;;;;;;2.88;1.85;;;;;;;;;;5076231;28;20273;-68
2023/02/26 03:47:45;;;;;;;2.40;1.45;;;;;;;;;;5075571;28;20195;-68
2023/02/26 03:50:14;;;;;;;2.97;2.05;;;;;;;;;;5075961;28;20205;-68
2023/02/26 03:52:43;;;;;;;4.47;1.80;;;;;;;;;;5076151;28;20554;-68
2023/02/26 03:55:13;;;;;;;4.00;1.98;;;;;;;;;;5076424;28;20190;-68
2023/02/26 03:57:40;;;;;;;1.70;1.60;;;;;;;;;;5076135;28;20194;-69
2023/02/26 04:00:10;;;;;;;2.17;1.90;;;;;;;;;;5076363;28;20539;-68
2023/02/26 04:02:40;;;;;;;4.50;2.05;;;;;;;;;;5075451;28;20220;-69
2023/02/26 04:05:11;;;;;;;2.25;1.88;;;;;;;;;;5075635;28;20221;-69
2023/02/26 04:07:38;;;;;;;4.95;2.08;;;;;;;;;;5076475;28;20183;-69
2023/02/26 04:10:07;;;;;;;8.02;2.45;;;;;;;;;;5075636;28;20754;-68
2023/02/26 04:12:34;;;;;;;6.03;2.10;;;;;;;;;;5075971;28;20195;-68
2023/02/26 04:15:04;;;;;;;4.05;2.08;;;;;;;;;;5075408;28;20195;-68
2023/02/26 04:17:32;;;;;;;4.53;1.50;;;;;;;;;;5075957;28;20299;-68
2023/02/26 04:19:59;;;;;;;4.80;1.65;;;;;;;;;;5075337;28;20194;-68
2023/02/26 04:22:27;;;;;;;6.13;1.90;;;;;;;;;;5075705;28;20217;-68
2023/02/26 04:24:54;;;;;;;1.70;1.60;;;;;;;;;;5075230;28;20518;-68
2023/02/26 04:27:21;;;;;;;4.80;2.58;;;;;;;;;;5075253;28;20579;-68
2023/02/26 04:29:48;;;;;;;3.25;2.20;;;;;;;;;;5074938;28;20194;-68
2023/02/26 04:32:15;;;;;;;4.57;1.90;;;;;;;;;;5075489;28;20195;-68
2023/02/26 04:34:44;;;;;;;4.10;1.80;;;;;;;;;;5074380;28;20195;-69
2023/02/26 04:37:11;;;;;;;3.15;1.70;;;;;;;;;;5053765;28;20210;-69
2023/02/26 04:39:38;;;;;;;4.85;1.92;;;;;;;;;;5053759;28;20183;-69
2023/02/26 04:42:05;;;;;;;4.95;1.80;;;;;;;;;;5054208;28;20212;-69
2023/02/26 04:44:34;;;;;;;1.63;1.52;;;;;;;;;;5053917;28;20652;-69
2023/02/26 04:47:01;;;;;;;2.58;1.95;;;;;;;;;;5053702;28;20198;-69
2023/02/26 04:49:28;;;;;;;6.50;1.90;;;;;;;;;;5053773;28;20191;-69
2023/02/26 04:51:57;;;;;;;1.67;1.58;;;;;;;;;;5054221;28;20306;-69
2023/02/26 04:54:24;;;;;;;2.00;1.55;;;;;;;;;;5053903;28;20201;-68
2023/02/26 04:56:51;;;;;;;2.58;2.00;;;;;;;;;;5054066;28;20286;-68
2023/02/26 04:59:18;;;;;;;6.22;1.88;;;;;;;;;;5053551;28;20191;-69
2023/02/26 05:01:45;;;;;;;5.40;1.75;;;;;;;;;;5053754;28;20306;-69
2023/02/26 05:04:12;;;;;;;2.65;1.55;;;;;;;;;;5053649;28;20191;-68
2023/02/26 05:06:40;;;;;;;1.85;1.50;;;;;;;;;;5053499;28;20207;-68
2023/02/26 05:09:09;;;;;;;3.47;1.80;;;;;;;;;;5053746;28;20198;-68
2023/02/26 05:11:36;;;;;;;4.28;2.00;;;;;;;;;;5054282;28;20191;-68
2023/02/26 05:14:03;;;;;;;1.77;1.40;;;;;;;;;;5054159;28;20191;-69
2023/02/26 05:16:31;;;;;;;2.05;1.85;;;;;;;;;;5054392;28;20195;-68
2023/02/26 05:18:58;;;;;;;2.53;2.20;;;;;;;;;;5054125;28;20290;-68
2023/02/26 05:21:25;;;;;;;4.50;1.70;;;;;;;;;;5053944;28;20264;-68
2023/02/26 05:23:52;;;;;;;5.28;2.10;;;;;;;;;;5053765;28;20297;-69
2023/02/26 05:26:21;;;;;;;3.38;1.70;;;;;;;;;;5053499;28;20199;-69
2023/02/26 05:28:48;;;;;;;2.28;1.75;;;;;;;;;;5053298;28;20199;-69
2023/02/26 05:31:15;;;;;;;5.85;2.30;;;;;;;;;;5053826;28;20187;-68
2023/02/26 05:33:42;;;;;;;1.77;1.60;;;;;;;;;;5053815;28;20195;-68
2023/02/26 05:36:10;;;;;;;10.98;1.85;;;;;;;;;;5053579;28;20202;-68
2023/02/26 05:38:37;;;;;;;2.47;1.90;;;;;;;;;;5053535;28;20193;-68
2023/02/26 05:41:04;;;;;;;3.47;1.88;;;;;;;;;;5053454;28;20191;-69
2023/02/26 05:43:33;;;;;;;2.60;1.55;;;;;;;;;;5053602;28;20612;-68
2023/02/26 05:46:00;;;;;;;6.18;2.00;;;;;;;;;;5052450;28;20207;-69
2023/02/26 05:48:28;;;;;;;5.70;1.92;;;;;;;;;;5053347;28;20196;-69
2023/02/26 05:50:55;;;;;;;5.13;1.85;;;;;;;;;;5053254;28;20203;-68
2023/02/26 05:53:22;;;;;;;4.18;1.90;;;;;;;;;;5053464;28;20283;-69
2023/02/26 05:55:50;;;;;;;6.25;1.73;;;;;;;;;;5053128;28;20195;-68
2023/02/26 05:58:17;;;;;;;3.28;1.75;;;;;;;;;;5053261;28;20191;-68
2023/02/26 06:00:46;;;;;;;2.50;1.90;;;;;;;;;;5053458;28;20512;-68
2023/02/26 06:03:13;;;;;;;5.28;1.73;;;;;;;;;;5053340;28;20222;-68
2023/02/26 06:05:40;;;;;;;2.33;1.40;;;;;;;;;;5052903;28;20215;-68
2023/02/26 06:08:07;;;;;;;3.35;2.20;;;;;;;;;;5052827;28;20194;-68
2023/02/26 06:10:35;;;;;;;3.17;1.70;;;;;;;;;;5053651;28;20193;-68
2023/02/26 06:13:02;;;;;;;4.57;1.75;;;;;;;;;;5053478;28;20195;-68
2023/02/26 06:15:29;;;;;;;4.47;2.20;;;;;;;;;;5052907;28;20645;-68
2023/02/26 06:17:57;;;;;;;5.75;1.70;;;;;;;;;;5053440;28;20564;-68
2023/02/26 06:20:25;;;;;;;3.13;1.45;;;;;;;;;;5053186;28;20283;-67
2023/02/26 06:22:52;;;;;;;3.20;1.75;;;;;;;;;;5053204;28;20223;-67
2023/02/26 06:25:19;;;;;;;2.78;1.60;;;;;;;;;;5052709;28;20186;-68
2023/02/26 06:27:46;;;;;;;6.55;2.38;;;;;;;;;;5052786;28;20195;-68
2023/02/26 06:30:14;;;;;;;3.40;2.13;;;;;;;;;;5052936;28;20191;-68
2023/02/26 06:32:41;;;;;;;3.30;1.80;;;;;;;;;;5053100;28;20190;-68
2023/02/26 06:35:10;;;;;;;2.20;1.77;;;;;;;;;;5052782;28;20644;-68
2023/02/26 06:37:37;;;;;;;2.00;1.88;;;;;;;;;;5052928;28;20194;-68
2023/02/26 06:40:05;;;;;;;2.13;1.73;;;;;;;;;;5053378;28;20191;-68
2023/02/26 06:42:32;;;;;;;1.85;1.75;;;;;;;;;;5052990;28;20218;-68
2023/02/26 06:45:00;;;;;;;5.43;2.45;;;;;;;;;;5052737;28;20201;-68
2023/02/26 06:47:27;;;;;;;2.33;2.00;;;;;;;;;;5052496;28;20199;-67
2023/02/26 06:49:54;;;;;;;3.50;2.00;;;;;;;;;;5052744;28;20198;-68
2023/02/26 06:52:22;;;;;;;5.60;1.95;;;;;;;;;;5053019;28;20191;-67
2023/02/26 06:54:50;;;;;;;6.68;2.35;;;;;;;;;;5052638;28;20309;-68
2023/02/26 06:57:17;;;;;;;10.23;1.65;;;;;;;;;;5055269;28;20192;-68
2023/02/26 06:59:44;;;;;;;4.70;2.03;;;;;;;;;;5056857;28;20512;-67
2023/02/26 07:02:16;;;;;;;1.80;1.70;;;;;;;;;;5056327;28;20213;-68
2023/02/26 07:04:43;;;;;;;2.45;2.00;;;;;;;;;;5056200;28;20222;-69
2023/02/26 07:07:10;;;;;;;4.75;1.90;;;;;;;;;;5055628;28;20210;-68
2023/02/26 07:09:39;;;;;;;2.45;2.25;;;;;;;;;;5056047;28;20199;-68
2023/02/26 07:12:07;;;;;;;4.60;2.40;;;;;;;;;;5056162;28;20198;-68
2023/02/26 07:14:34;;;;;;;3.90;1.40;;;;;;;;;;5056694;28;20195;-68
2023/02/26 07:17:01;;;;;;;2.38;2.05;;;;;;;;;;5056404;28;20193;-68
2023/02/26 07:19:29;;;;;;;1.77;1.67;;;;;;;;;;5056361;28;20191;-68
2023/02/26 07:21:56;;;;;;;1.98;1.50;;;;;;;;;;5056388;28;20197;-68
2023/02/26 07:24:23;;;;;;;1.60;1.50;;;;;;;;;;5056227;28;20194;-68
2023/02/26 07:26:51;;;;;;;3.08;2.20;;;;;;;;;;5055717;28;20198;-69
2023/02/26 07:29:19;;;;;;;3.03;1.55;;;;;;;;;;5055572;28;20191;-69
2023/02/26 07:31:46;;;;;;;2.65;1.65;;;;;;;;;;5056151;28;20201;-68
2023/02/26 07:34:13;;;;;;;4.80;1.90;;;;;;;;;;5056305;28;20192;-68
2023/02/26 07:36:40;;;;;;;6.80;1.50;;;;;;;;;;5055637;28;20656;-68
2023/02/26 07:39:08;;;;;;;3.45;1.65;;;;;;;;;;5056092;28;20213;-78
2023/02/26 07:41:35;;;;;;;6.18;2.20;;;;;;;;;;5055890;28;20189;-68
2023/02/26 07:44:03;;;;;;;3.10;2.65;;;;;;;;;;5055908;28;20214;-73
2023/02/26 07:46:30;;;;;;;3.85;1.80;;;;;;;;;;5054999;28;20196;-67
2023/02/26 07:48:58;;;;;;;1.80;1.70;;;;;;;;;;5055494;28;20655;-68
2023/02/26 07:51:25;;;;;;;9.75;2.15;;;;;;;;;;5055724;28;20195;-68
2023/02/26 07:53:52;;;;;;;3.15;1.73;;;;;;;;;;5056072;28;20548;-67
2023/02/26 07:56:19;;;;;;;7.90;2.20;;;;;;;;;;5055709;28;20191;-67
2023/02/26 07:58:46;;;;;;;5.63;1.75;;;;;;;;;;5055753;28;20195;-67
2023/02/26 08:01:15;;;;;;;3.35;1.95;;;;;;;;;;5055509;28;20201;-68
2023/02/26 08:03:42;;;;;;;3.38;2.10;;;;;;;;;;5055379;28;20541;-67
2023/02/26 08:06:09;;;;;;;1.88;1.73;;;;;;;;;;5054284;28;20226;-67
2023/02/26 08:08:36;;;;;;;2.17;1.67;;;;;;;;;;5054073;28;20223;-67
2023/02/26 08:11:04;;;;;;;2.22;1.90;;;;;;;;;;5055058;28;20666;-67
2023/02/26 08:13:31;;;;;;;7.85;2.72;;;;;;;;;;5055309;28;20242;-67
2023/02/26 08:15:58;;;;;;;2.35;2.15;;;;;;;;;;5055022;28;20186;-67
2023/02/26 08:18:27;;;;;;;4.38;1.80;;;;;;;;;;5054816;28;20199;-67
2023/02/26 08:20:54;;;;;;;3.85;1.90;;;;;;;;;;5055189;28;20201;-67
2023/02/26 08:23:21;;;;;;;3.80;2.58;;;;;;;;;;5055006;28;20210;-67
2023/02/26 08:25:49;;;;;;;1.73;1.63;;;;;;;;;;5054737;28;20191;-67
2023/02/26 08:28:16;;;;;;;2.00;1.60;;;;;;;;;;5054691;28;20585;-68
2023/02/26 08:30:43;;;;;;;10.35;1.83;;;;;;;;;;5055253;28;20191;-67
2023/02/26 08:33:11;;;;;;;3.83;1.63;;;;;;;;;;5054962;28;20222;-68
2023/02/26 08:35:39;;;;;;;3.60;1.73;;;;;;;;;;5054497;28;20187;-67
2023/02/26 08:38:07;;;;;;;3.55;2.22;;;;;;;;;;5054264;28;20192;-67
2023/02/26 08:40:34;;;;;;;3.90;3.20;;;;;;;;;;5054222;28;20210;-67
2023/02/26 08:43:02;;;;;;;2.63;1.67;;;;;;;;;;5053651;28;20213;-67
2023/02/26 08:45:30;;;;;;;2.35;1.50;;;;;;;;;;5053514;28;20198;-67
2023/02/26 08:47:57;;;;;;;2.95;1.90;;;;;;;;;;5053908;28;20649;-67
2023/02/26 08:50:24;;;;;;;4.20;1.90;;;;;;;;;;5054539;28;20197;-67
2023/02/26 08:52:53;;;;;;;3.47;2.03;;;;;;;;;;5054248;28;20196;-67
2023/02/26 08:55:20;;;;;;;5.30;1.60;;;;;;;;;;5054515;28;20195;-67
2023/02/26 08:57:48;;;;;;;2.97;2.38;;;;;;;;;;5054511;28;20683;-67
2023/02/26 09:00:17;;;;;;;4.50;2.17;;;;;;;;;;5054499;28;20194;-67
2023/02/26 09:02:45;;;;;;;5.30;2.10;;;;;;;;;;5054022;28;20210;-67
2023/02/26 09:05:13;;;;;;;2.28;1.52;;;;;;;;;;5054058;28;20214;-67
2023/02/26 09:07:41;;;;;;;8.60;2.15;;;;;;;;;;5066702;28;20199;-68
2023/02/26 09:10:10;;;;;;;5.75;1.70;;;;;;;;;;5053652;28;20203;-67
2023/02/26 09:12:38;;;;;;;4.28;2.35;;;;;;;;;;5053875;28;20297;-67
2023/02/26 09:15:05;;;;;;;4.40;1.80;;;;;;;;;;5054296;28;20189;-68
2023/02/26 09:17:32;;;;;;;8.80;1.90;;;;;;;;;;5053935;28;20202;-67
2023/02/26 09:20:00;;;;;;;3.10;1.80;;;;;;;;;;5052912;28;20202;-67
2023/02/26 09:22:27;;;;;;;3.63;1.90;;;;;;;;;;5054140;28;20268;-67
2023/02/26 09:24:54;;;;;;;3.05;1.80;;;;;;;;;;5054208;28;20217;-67
2023/02/26 09:27:22;;;;;;;2.72;1.60;;;;;;;;;;5053733;28;20198;-67
2023/02/26 09:29:50;;;;;;;3.00;1.95;;;;;;;;;;5053428;28;20279;-68
2023/02/26 09:32:18;;;;;;;4.00;2.17;;;;;;;;;;5053533;28;20191;-68
2023/02/26 09:34:45;;;;;;;4.30;1.80;;;;;;;;;;5053708;28;20553;-67
2023/02/26 09:37:12;;;;;;;2.85;1.75;;;;;;;;;;5053728;28;20292;-66
2023/02/26 09:39:39;;;;;;;2.75;1.42;;;;;;;;;;5053703;28;20514;-66
2023/02/26 09:42:10;;;;;;;3.88;1.50;;;;;;;;;;5053638;28;20274;-66
2023/02/26 09:44:39;;;;;;;1.73;1.52;;;;;;;;;;5053319;28;20208;-66
2023/02/26 09:47:12;;;;;;;2.08;1.63;;;;;;;;;;5053492;28;20196;-66
2023/02/26 09:49:46;;;;;;;4.32;2.15;;;;;;;;;;5053346;28;20636;-66
2023/02/26 09:52:17;;;;;;;4.10;1.60;;;;;;;;;;5053421;28;20324;-66
2023/02/26 09:54:46;;;;;;;2.08;1.45;;;;;;;;;;5053281;28;20230;-66
2023/02/26 09:57:19;;;;;;;1.65;1.55;;;;;;;;;;5053313;28;20197;-66
2023/02/26 09:59:48;;;;;;;3.45;1.88;;;;;;;;;;5053565;28;20610;-66
2023/02/26 10:02:17;;;;;;;2.40;1.50;;;;;;;;;;5053579;28;20655;-66
2023/02/26 10:04:50;;;;;;;1.60;1.50;;;;;;;;;;5053281;28;20242;-66
2023/02/26 10:07:22;;;;;;;3.97;1.52;;;;;;;;;;5053957;28;20185;-66
2023/02/26 10:10:00;;;;;;;2.22;1.50;;;;;;;;;;5053556;28;20191;-66
2023/02/26 10:12:28;;;;;;;3.10;1.90;;;;;;;;;;5053849;28;20509;-66
2023/02/26 10:14:59;;;;;;;2.85;1.60;;;;;;;;;;5053009;28;20202;-65
2023/02/26 10:17:29;;;;;;;6.18;2.10;;;;;;;;;;5053664;28;20207;-66
2023/02/26 10:20:01;;;;;;;1.88;1.63;;;;;;;;;;5052916;28;20199;-66
2023/02/26 10:22:31;;;;;;;5.90;1.95;;;;;;;;;;5053417;28;20276;-66
2023/02/26 10:25:01;;;;;;;1.52;1.42;;;;;;;;;;5053193;28;20220;-65
2023/02/26 10:27:36;;;;;;;3.92;2.03;;;;;;;;;;5053216;28;20194;-66
2023/02/26 10:30:07;;;;;;;1.40;1.30;;;;;;;;;;5053333;28;20584;-66
2023/02/26 10:32:37;;;;;;;2.38;1.50;;;;;;;;;;5056695;28;20199;-67
2023/02/26 10:35:07;;;;;;;3.35;1.60;;;;;;;;;;5056907;28;20193;-65
2023/02/26 10:37:39;;;;;;;3.08;1.52;;;;;;;;;;5057069;28;20181;-66
2023/02/26 10:40:12;;;;;;;2.00;1.55;;;;;;;;;;5057257;28;20188;-65
2023/02/26 10:42:42;;;;;;;2.75;1.95;;;;;;;;;;5057509;28;20272;-66
2023/02/26 10:45:16;;;;;;;3.63;1.60;;;;;;;;;;5057103;28;20223;-76
2023/02/26 10:47:47;;;;;;;1.92;1.75;;;;;;;;;;5057554;28;20189;-68
2023/02/26 10:50:15;;;;;;;2.85;1.45;;;;;;;;;;5057168;28;20190;-68
2023/02/26 10:52:44;;;;;;;1.63;1.40;;;;;;;;;;5057096;28;20189;-68
2023/02/26 10:55:22;;;;;;;1.55;1.45;;;;;;;;;;5057100;28;20546;-68
2023/02/26 10:57:52;;;;;;;3.50;1.60;;;;;;;;;;5057133;28;20523;-69
2023/02/26 11:00:22;;;;;;;3.20;2.03;;;;;;;;;;5056913;28;20507;-68
2023/02/26 11:02:52;;;;;;;1.88;1.40;;;;;;;;;;5056763;28;20240;-67
2023/02/26 11:05:20;;;;;;;3.67;1.95;;;;;;;;;;5054839;28;20238;-67
2023/02/26 11:07:48;;;;;;;3.25;2.63;;;;;;;;;;5056018;28;20304;-67
2023/02/26 11:10:17;;;;;;;10.20;9.15;;;;;;;;;;5056178;28;20578;-67
2023/02/26 11:12:46;;;;;;;6.50;5.25;;;;;;;;;;5056124;28;20189;-68
2023/02/26 11:15:13;;;;;;;4.82;3.30;;;;;;;;;;5055970;28;20232;-66
2023/02/26 11:17:42;;;;;;;2.65;1.50;;;;;;;;;;5055760;28;20200;-66
2023/02/26 11:20:25;;;;;;;1.63;1.48;;;;;;;;;;5056194;28;20192;-66
2023/02/26 11:22:55;;;;;;;2.67;1.70;;;;;;;;;;5056064;28;20236;-66
2023/02/26 11:25:23;;;;;;;2.25;1.60;;;;;;;;;;5055710;28;20704;-66
2023/02/26 11:27:53;;;;;;;4.63;1.75;;;;;;;;;;5056038;28;20207;-66
2023/02/26 11:30:21;;;;;;;1.70;1.60;;;;;;;;;;5056045;28;20194;-67
2023/02/26 11:32:54;;;;;;;1.88;1.45;;;;;;;;;;5055829;28;20195;-67
2023/02/26 11:35:23;;;;;;;2.10;1.80;;;;;;;;;;5055496;28;20196;-66
2023/02/26 11:37:54;;;;;;;1.67;1.40;;;;;;;;;;5055235;28;20676;-66
2023/02/26 11:40:24;;;;;;;2.08;1.30;;;;;;;;;;5055875;28;20221;-66
2023/02/26 11:42:53;;;;;;;1.42;1.33;;;;;;;;;;5054583;28;20649;-65
2023/02/26 11:45:21;;;;;;;16.23;9.27;;;;;;;;;;5055515;28;20210;-66
2023/02/26 11:47:49;;;;;;;21.83;11.88;;;;;;;;;;5055966;28;20594;-66
2023/02/26 11:50:21;;;;;;;12.52;6.60;;;;;;;;;;5056054;28;20190;-65
2023/02/26 11:52:55;;;;;;;22.77;10.10;;;;;;;;;;5055620;28;20239;-66
2023/02/26 11:55:23;;;;;;;9.88;7.38;;;;;;;;;;5055489;28;20193;-68
2023/02/26 11:57:52;;;;;;;1.98;1.70;;;;;;;;;;5054745;28;20209;-68
2023/02/26 12:00:21;;;;;;;2.15;1.92;;;;;;;;;;5055393;28;20201;-65
2023/02/26 12:02:48;;;;;;;1.80;1.50;;;;;;;;;;5055474;28;20192;-66
2023/02/26 12:05:17;;;;;;;3.25;1.60;;;;;;;;;;5055409;28;20328;-65
2023/02/26 12:07:47;;;;;;;7.07;3.92;;;;;;;;;;5055621;28;20196;-65
2023/02/26 12:10:16;;;;;;;3.08;2.47;;;;;;;;;;5055147;28;20181;-65
2023/02/26 12:12:55;;;;;;;2.35;1.80;;;;;;;;;;5055161;28;20237;-65
2023/02/26 12:15:28;;;;;;;3.15;1.40;;;;;;;;;;5055299;28;20200;-65
2023/02/26 12:18:01;;;;;;;2.50;1.60;;;;;;;;;;5054754;28;20178;-65
2023/02/26 12:20:30;;;;;;;2.05;1.58;;;;;;;;;;5055325;28;20185;-66
2023/02/26 12:23:07;;;;;;;2.55;1.52;;;;;;;;;;5055302;28;20200;-67
2023/02/26 12:25:44;;;;;;;3.40;1.60;;;;;;;;;;5055079;28;20231;-65
2023/02/26 12:28:22;;;;;;;1.48;1.38;;;;;;;;;;5055384;28;20267;-67
2023/02/26 12:31:06;;;;;;;5.88;1.73;;;;;;;;;;5055072;28;20244;-66
2023/02/26 12:33:39;;;;;;;3.65;2.75;;;;;;;;;;5054763;28;20193;-64
2023/02/26 12:36:16;;;;;;;3.70;1.48;;;;;;;;;;5054161;28;20184;-65
2023/02/26 12:38:50;;;;;;;2.55;1.60;;;;;;;;;;5054606;28;20185;-64
2023/02/26 12:41:23;;;;;;;1.52;1.42;;;;;;;;;;5054879;28;20184;-67
2023/02/26 12:43:51;;;;;;;2.38;1.70;;;;;;;;;;5054720;28;20302;-65
2023/02/26 12:46:24;;;;;;;2.97;1.50;;;;;;;;;;5054473;28;20662;-66
2023/02/26 12:49:06;;;;;;;2.13;1.80;;;;;;;;;;5054911;28;20272;-66
2023/02/26 12:51:41;;;;;;;3.47;1.35;;;;;;;;;;5051043;28;20280;-66
2023/02/26 12:54:22;;;;;;;1.60;1.50;;;;;;;;;;5054626;28;20195;-66
2023/02/26 12:56:56;;;;;;;1.60;1.42;;;;;;;;;;5054015;28;20185;-66
2023/02/26 12:59:30;;;;;;;1.65;1.55;;;;;;;;;;5054244;28;20214;-68
2023/02/26 13:02:06;;;;;;;3.90;2.10;;;;;;;;;;5054337;28;20189;-66
2023/02/26 13:04:48;;;;;;;2.17;1.80;;;;;;;;;;5054389;28;20241;-66
2023/02/26 13:07:48;;;;;;;1.70;1.60;;;;;;;;;;5051124;28;20228;-66
2023/02/26 13:10:20;;;;;;;3.83;2.08;;;;;;;;;;4954522;29;20608;-66
2023/02/26 13:12:50;;;;;;;4.53;1.55;;;;;;;;;;5035869;28;20254;-66
2023/02/26 13:15:33;;;;;;;1.55;1.45;;;;;;;;;;5053948;28;20206;-66
2023/02/26 13:18:04;;;;;;;1.70;1.60;;;;;;;;;;5053468;28;20209;-66
2023/02/26 13:20:31;;;;;;;3.63;1.60;;;;;;;;;;5053989;28;20662;-66
2023/02/26 13:23:01;;;;;;;2.10;1.63;;;;;;;;;;5054186;28;20563;-65
2023/02/26 13:25:35;;;;;;;4.82;1.70;;;;;;;;;;5054063;28;20216;-66
2023/02/26 13:28:04;;;;;;;1.90;1.70;;;;;;;;;;5054278;28;20192;-66
2023/02/26 13:30:33;;;;;;;2.53;2.05;;;;;;;;;;5053893;28;20194;-65
2023/02/26 13:33:03;;;;;;;3.42;1.90;;;;;;;;;;5053682;28;20194;-66
2023/02/26 13:35:32;;;;;;;5.78;2.13;;;;;;;;;;5053288;28;20725;-67
2023/02/26 13:38:01;;;;;;;3.45;1.90;;;;;;;;;;5052920;28;20689;-66
2023/02/26 13:40:46;;;;;;;3.17;1.73;;;;;;;;;;5053638;28;20202;-66
2023/02/26 13:43:22;;;;;;;2.20;1.77;;;;;;;;;;5053559;28;20178;-66
2023/02/26 13:45:57;;;;;;;2.40;1.80;;;;;;;;;;5053116;28;20206;-66
2023/02/26 13:48:31;;;;;;;2.05;1.30;;;;;;;;;;5053386;28;20272;-65
2023/02/26 13:51:05;;;;;;;1.83;1.65;;;;;;;;;;5054077;28;20275;-66
2023/02/26 13:53:36;;;;;;;1.92;1.83;;;;;;;;;;5053801;28;20190;-66
2023/02/26 13:56:07;;;;;;;2.00;1.80;;;;;;;;;;5053205;28;20231;-66
2023/02/26 13:58:39;;;;;;;4.03;2.42;;;;;;;;;;5052883;28;20577;-65
2023/02/26 14:01:10;;;;;;;2.00;1.80;;;;;;;;;;5053312;28;20526;-66
2023/02/26 14:03:41;;;;;;;2.58;1.50;;;;;;;;;;5053453;28;20187;-66
2023/02/26 14:06:11;;;;;;;4.20;1.70;;;;;;;;;;5053429;28;20233;-66
2023/02/26 14:08:47;;;;;;;2.40;1.60;;;;;;;;;;5053834;28;20200;-66
2023/02/26 14:11:38;;;;;;;2.60;2.05;;;;;;;;;;5053608;28;20566;-66
2023/02/26 14:14:14;;;;;;;4.03;1.80;;;;;;;;;;5053418;28;20186;-66
2023/02/26 14:16:43;;;;;;;2.80;1.80;;;;;;;;;;5052904;28;20255;-67
2023/02/26 14:19:20;;;;;;;1.70;1.60;;;;;;;;;;5052439;28;20195;-66
2023/02/26 14:21:49;;;;;;;2.20;2.00;;;;;;;;;;5052887;28;20616;-66
2023/02/26 14:24:19;;;;;;;3.60;2.70;;;;;;;;;;5052867;28;20193;-66
2023/02/26 14:26:48;;;;;;;2.55;2.05;;;;;;;;;;5053115;28;20222;-66
2023/02/26 14:29:22;;;;;;;2.45;1.70;;;;;;;;;;5053077;28;20655;-65
2023/02/26 14:32:05;;;;;;;6.75;2.50;;;;;;;;;;5053032;28;20271;-66
2023/02/26 14:34:35;;;;;;;3.58;2.25;;;;;;;;;;5052937;28;20205;-66
2023/02/26 14:37:05;;;;;;;3.83;2.55;;;;;;;;;;5052435;28;20186;-65
2023/02/26 14:39:36;;;;;;;2.88;1.90;;;;;;;;;;5051918;28;20278;-67
2023/02/26 14:42:05;;;;;;;2.03;1.83;;;;;;;;;;5053629;28;20230;-66
2023/02/26 14:44:36;;;;;;;3.03;2.75;;;;;;;;;;5052949;28;20218;-67
2023/02/26 14:47:04;;;;;;;2.08;1.75;;;;;;;;;;5053113;28;20185;-66
2023/02/26 14:49:33;;;;;;;3.00;2.47;;;;;;;;;;5053051;28;20270;-68
2023/02/26 14:52:17;;;;;;;1.95;1.85;;;;;;;;;;5052682;28;20697;-69
2023/02/26 14:54:50;;;;;;;2.00;1.80;;;;;;;;;;5052826;28;20271;-69
2023/02/26 14:57:24;;;;;;;3.92;1.70;;;;;;;;;;5052613;28;20179;-66
2023/02/26 15:00:01;;;;;;;2.70;2.00;;;;;;;;;;5052479;28;20236;-69